Greeley West High School, Colorado
Current Conditions -  °F | °C
As of 2:35 PM on Thursday 23 Oct 2014 (Local Time) from KGXY Reporting Station
Clear Clear  
Wind Chill: 73°   Ceiling: Unl
Heat Index: 73°   Visibility: 10mi
Dew Point: 32°   Wind: 6mph
Humidity: 22%   Direction: 210°SSW
Pressure: 30.09"   Gusts: NA
Location:  40.41412°N, 104.7064°W
Report Text: KGXY 232035Z AUTO 21005KT 10SM CLR 23/00 A3009 RMK AO1
Loading
Personal Weather Stations






























Interactive Weather Map
Tropical Storm Tracking
New forecast layout! Learn more

10-Day Weather Forecast

Advertisements
Track Severe Weather on mobile